createdAt,value
2023-11-21T00:01:05.445Z,42.83
2023-11-21T00:03:32.883Z,43.40
2023-11-21T00:05:59.593Z,44.53
2023-11-21T00:08:26.064Z,43.40
2023-11-21T00:10:52.825Z,44.33
2023-11-21T00:13:19.509Z,41.95
2023-11-21T00:15:46.080Z,40.13
2023-11-21T00:18:12.893Z,40.45
2023-11-21T00:20:39.459Z,43.63
2023-11-21T00:23:06.062Z,42.65
2023-11-21T00:25:32.920Z,42.30
2023-11-21T00:28:00.540Z,44.08
2023-11-21T00:30:27.051Z,44.50
2023-11-21T00:32:53.655Z,44.63
2023-11-21T00:35:20.155Z,44.78
2023-11-21T00:37:46.712Z,46.30
2023-11-21T00:40:13.835Z,48.72
2023-11-21T00:42:40.457Z,48.22
2023-11-21T00:45:08.098Z,45.38
2023-11-21T00:47:34.792Z,47.58
2023-11-21T00:50:01.527Z,46.00
2023-11-21T00:52:28.293Z,47.95
2023-11-21T00:54:54.801Z,45.97
2023-11-21T00:57:21.271Z,43.05
2023-11-21T00:59:47.791Z,46.33
2023-11-21T01:02:14.336Z,45.45
2023-11-21T01:04:40.846Z,45.40
2023-11-21T01:07:07.405Z,49.70
2023-11-21T01:09:34.097Z,47.92
2023-11-21T01:12:01.093Z,46.92
2023-11-21T01:14:28.626Z,46.40
2023-11-21T01:16:55.447Z,47.85
2023-11-21T01:19:22.080Z,46.25
2023-11-21T01:21:48.663Z,45.38
2023-11-21T01:24:15.105Z,45.17
2023-11-21T01:26:41.719Z,45.75
2023-11-21T01:29:08.500Z,46.42
2023-11-21T01:31:35.230Z,45.03
2023-11-21T01:34:01.926Z,46.35
2023-11-21T01:36:33.549Z,48.15
2023-11-21T01:39:00.942Z,48.53
2023-11-21T01:41:28.402Z,46.70
2023-11-21T01:43:55.475Z,46.15
2023-11-21T01:46:23.547Z,47.28
2023-11-21T01:48:50.453Z,44.15
2023-11-21T01:51:17.881Z,44.42
2023-11-21T01:53:46.480Z,45.05
2023-11-21T01:56:13.697Z,45.13
2023-11-21T01:58:41.226Z,41.85
2023-11-21T02:01:07.849Z,42.22
2023-11-21T02:03:34.470Z,46.58
2023-11-21T02:06:01.359Z,47.42
2023-11-21T02:08:28.061Z,46.63
2023-11-21T02:10:54.588Z,45.55
2023-11-21T02:13:21.193Z,49.65
2023-11-21T02:15:48.666Z,42.78
2023-11-21T02:18:16.902Z,41.67
2023-11-21T02:20:43.909Z,44.42
2023-11-21T02:23:10.392Z,44.83
2023-11-21T02:25:38.367Z,41.80
2023-11-21T02:28:05.514Z,42.85
2023-11-21T02:30:35.087Z,46.80
2023-11-21T02:33:02.737Z,43.38
2023-11-21T02:35:29.617Z,43.55
2023-11-21T02:37:56.605Z,42.90
2023-11-21T02:40:25.733Z,40.92
2023-11-21T02:42:52.471Z,39.05
2023-11-21T02:45:21.895Z,42.95
2023-11-21T02:47:48.475Z,45.03
2023-11-21T02:50:14.950Z,42.00
2023-11-21T02:52:41.492Z,41.60
2023-11-21T02:55:11.043Z,40.65
2023-11-21T02:57:37.566Z,38.70
2023-11-21T03:00:04.734Z,41.70
2023-11-21T03:02:31.362Z,40.20
2023-11-21T03:04:57.980Z,38.83
2023-11-21T03:07:24.589Z,38.30
2023-11-21T03:09:51.522Z,37.58
2023-11-21T03:12:18.180Z,38.20
2023-11-21T03:14:44.637Z,38.05
2023-11-21T03:17:11.082Z,40.65
2023-11-21T03:19:37.574Z,37.83
2023-11-21T03:22:05.294Z,41.13
2023-11-21T03:24:32.043Z,41.05
2023-11-21T03:26:58.515Z,38.58
2023-11-21T03:29:24.952Z,39.85
2023-11-21T03:31:52.231Z,40.40
2023-11-21T03:34:29.833Z,39.42
2023-11-21T03:36:56.485Z,43.13
2023-11-21T03:39:23.665Z,39.95
2023-11-21T03:41:50.329Z,39.58
2023-11-21T03:44:16.841Z,39.28
2023-11-21T03:46:43.326Z,40.45
2023-11-21T03:49:09.843Z,41.22
2023-11-21T03:51:36.295Z,38.75
2023-11-21T03:54:02.878Z,39.53
2023-11-21T03:56:29.346Z,40.72
2023-11-21T03:58:55.807Z,37.72
2023-11-21T04:01:25.890Z,38.28
2023-11-21T04:03:52.867Z,39.55
2023-11-21T04:06:19.508Z,41.33
2023-11-21T04:08:46.824Z,41.85
2023-11-21T04:11:13.678Z,39.30
2023-11-21T04:13:41.152Z,38.35
2023-11-21T04:16:08.750Z,38.33
2023-11-21T04:18:37.899Z,40.78
2023-11-21T04:21:08.796Z,38.70
2023-11-21T04:23:36.327Z,42.00
2023-11-21T04:26:03.985Z,39.63
2023-11-21T04:28:30.586Z,42.75
2023-11-21T04:30:57.461Z,43.28
2023-11-21T04:33:24.018Z,39.60
2023-11-21T04:35:50.573Z,41.78
2023-11-21T04:38:17.089Z,44.60
2023-11-21T04:40:43.608Z,44.75
2023-11-21T04:43:10.214Z,44.33
2023-11-21T04:45:36.726Z,39.15
2023-11-21T04:48:03.608Z,42.05
2023-11-21T04:50:30.133Z,41.70
2023-11-21T04:52:56.599Z,40.63
2023-11-21T04:55:23.185Z,45.67
2023-11-21T04:57:49.665Z,40.22
2023-11-21T05:00:17.246Z,42.30
2023-11-21T05:02:45.705Z,41.08
2023-11-21T05:05:13.278Z,43.38
2023-11-21T05:07:43.787Z,41.42
2023-11-21T05:10:13.433Z,43.57
2023-11-21T05:12:41.555Z,40.97
2023-11-21T05:15:12.549Z,45.00
2023-11-21T05:17:45.752Z,42.88
2023-11-21T05:20:15.019Z,45.78
2023-11-21T05:22:43.053Z,41.35
2023-11-21T05:25:09.969Z,40.58
2023-11-21T05:27:36.925Z,46.22
2023-11-21T05:30:12.948Z,42.58
2023-11-21T05:32:39.807Z,42.63
2023-11-21T05:35:12.963Z,44.83
2023-11-21T05:37:40.619Z,44.63
2023-11-21T05:40:08.756Z,42.67
2023-11-21T05:42:35.981Z,40.83
2023-11-21T05:45:11.384Z,41.72
2023-11-21T05:47:40.563Z,43.10
2023-11-21T05:50:13.721Z,44.47
2023-11-21T05:52:41.219Z,42.97
2023-11-21T05:55:08.979Z,43.97
2023-11-21T05:57:38.977Z,43.05
2023-11-21T06:00:12.142Z,42.55
2023-11-21T06:02:41.666Z,41.70
2023-11-21T06:05:09.535Z,38.05
2023-11-21T06:07:36.640Z,42.80
2023-11-21T06:10:07.619Z,45.10
2023-11-21T06:12:36.671Z,41.28
2023-11-21T06:15:06.124Z,43.25
2023-11-21T06:17:32.819Z,39.72
2023-11-21T06:19:59.406Z,40.55
2023-11-21T06:22:25.874Z,42.45
2023-11-21T06:24:52.484Z,41.50
2023-11-21T06:27:19.285Z,41.33
2023-11-21T06:29:45.826Z,42.70
2023-11-21T06:32:12.275Z,39.65
2023-11-21T06:34:39.160Z,42.85
2023-11-21T06:37:05.627Z,46.38
2023-11-21T06:39:32.066Z,45.63
2023-11-21T06:42:00.722Z,44.60
2023-11-21T06:44:27.185Z,41.25
2023-11-21T06:46:53.816Z,42.53
2023-11-21T06:49:20.471Z,43.95
2023-11-21T06:51:46.897Z,45.33
2023-11-21T06:54:13.385Z,43.08
2023-11-21T06:56:40.198Z,45.08
2023-11-21T06:59:06.813Z,42.50
2023-11-21T07:01:39.892Z,45.83
2023-11-21T07:04:07.608Z,45.58
2023-11-21T07:06:34.210Z,44.08
2023-11-21T07:09:02.233Z,43.03
2023-11-21T07:11:28.745Z,43.42
2023-11-21T07:13:55.211Z,43.25
2023-11-21T07:16:22.190Z,44.30
2023-11-21T07:18:50.257Z,47.83
2023-11-21T07:21:17.170Z,47.30
2023-11-21T07:23:43.701Z,46.40
2023-11-21T07:26:10.302Z,46.10
2023-11-21T07:28:36.881Z,44.58
2023-11-21T07:31:04.437Z,46.67
2023-11-21T07:33:31.158Z,42.55
2023-11-21T07:35:57.613Z,41.65
2023-11-21T07:38:24.252Z,43.28
2023-11-21T07:40:50.705Z,47.47
2023-11-21T07:43:17.293Z,45.97
2023-11-21T07:45:46.179Z,42.08
2023-11-21T07:48:14.044Z,46.83
2023-11-21T07:50:40.534Z,46.47
2023-11-21T07:53:07.182Z,51.33
2023-11-21T07:55:34.373Z,48.97
2023-11-21T07:58:01.052Z,51.47
2023-11-21T08:00:31.163Z,50.33
2023-11-21T08:02:57.767Z,49.38
2023-11-21T08:05:28.394Z,48.10
2023-11-21T08:08:01.399Z,48.90
2023-11-21T08:10:27.929Z,48.88
2023-11-21T08:12:54.612Z,46.55
2023-11-21T08:15:21.375Z,45.90
2023-11-21T08:17:49.364Z,49.08
2023-11-21T08:20:19.177Z,46.33
2023-11-21T08:22:46.362Z,49.72
2023-11-21T08:25:13.712Z,43.85
2023-11-21T08:27:40.232Z,44.92
2023-11-21T08:30:08.366Z,44.92
2023-11-21T08:32:34.858Z,46.45
2023-11-21T08:35:02.605Z,45.63
2023-11-21T08:37:31.207Z,41.88
2023-11-21T08:40:00.792Z,44.42
2023-11-21T08:42:28.799Z,43.15
2023-11-21T08:44:55.271Z,43.83
2023-11-21T08:47:21.763Z,45.78
2023-11-21T08:49:48.704Z,43.00
2023-11-21T08:52:15.196Z,43.55
2023-11-21T08:54:42.317Z,45.33
2023-11-21T08:57:09.919Z,40.85
2023-11-21T08:59:36.444Z,46.35
2023-11-21T09:02:02.960Z,40.53
2023-11-21T09:04:29.558Z,43.85
2023-11-21T09:06:56.113Z,41.28
2023-11-21T09:09:22.573Z,45.13
2023-11-21T09:11:50.299Z,42.65
2023-11-21T09:14:17.180Z,44.58
2023-11-21T09:16:44.215Z,44.17
2023-11-21T09:19:10.701Z,44.47
2023-11-21T09:21:37.176Z,44.42
2023-11-21T09:24:04.096Z,45.25
2023-11-21T09:26:31.083Z,43.40
2023-11-21T09:28:57.764Z,45.17
2023-11-21T09:31:25.474Z,43.95
2023-11-21T09:33:52.060Z,44.20
2023-11-21T09:36:19.291Z,43.58
2023-11-21T09:38:45.744Z,43.38
2023-11-21T09:41:28.596Z,43.92
2023-11-21T09:44:01.856Z,43.35
2023-11-21T09:46:29.236Z,46.20
2023-11-21T09:49:00.235Z,44.47
2023-11-21T09:54:22.811Z,44.00
2023-11-21T09:56:51.204Z,76.82
2023-11-21T09:59:17.791Z,101.80
2023-11-21T10:01:44.501Z,48.70
2023-11-21T10:04:13.923Z,46.40
2023-11-21T10:06:42.737Z,43.17
2023-11-21T10:09:13.489Z,42.92
2023-11-21T10:11:42.449Z,62.45
2023-11-21T10:14:13.714Z,47.70
2023-11-21T10:16:41.842Z,37.92
2023-11-21T10:19:12.305Z,41.17
2023-11-21T10:21:40.105Z,39.43
2023-11-21T10:24:07.379Z,42.60
2023-11-21T10:26:47.148Z,43.13
2023-11-21T10:29:22.480Z,38.00
2023-11-21T10:31:52.768Z,43.65
2023-11-21T10:34:21.499Z,35.88
2023-11-21T10:36:48.208Z,38.60
2023-11-21T10:39:20.172Z,42.15
2023-11-21T10:41:47.790Z,37.03
2023-11-21T10:44:22.560Z,42.00
2023-11-21T10:46:56.837Z,67.93
2023-11-21T10:49:28.424Z,43.33
2023-11-21T10:51:55.903Z,42.13
2023-11-21T10:54:24.386Z,40.92
2023-11-21T10:56:54.244Z,44.92
2023-11-21T10:59:22.310Z,37.60
2023-11-21T11:01:50.988Z,35.17
2023-11-21T11:04:19.868Z,33.47
2023-11-21T11:06:57.470Z,36.83
2023-11-21T11:09:24.730Z,34.33
2023-11-21T11:11:52.580Z,34.15
2023-11-21T11:14:20.880Z,31.65
2023-11-21T11:16:50.396Z,33.38
2023-11-21T11:19:17.738Z,39.30
2023-11-21T11:21:59.461Z,33.10
2023-11-21T11:24:50.314Z,33.88
2023-11-21T11:27:31.667Z,34.05
2023-11-21T11:33:07.202Z,29.90
2023-11-21T11:35:54.791Z,33.28
2023-11-21T11:38:24.817Z,34.97
2023-11-21T11:40:55.694Z,34.20
2023-11-21T11:43:34.032Z,33.25
2023-11-21T11:46:05.084Z,36.65
2023-11-21T11:48:39.430Z,33.88
2023-11-21T11:51:22.232Z,35.78
2023-11-21T11:53:49.414Z,31.95
2023-11-21T11:56:29.983Z,34.15
2023-11-21T11:58:58.162Z,38.37
2023-11-21T12:01:27.155Z,34.13
2023-11-21T12:04:12.337Z,36.30
2023-11-21T12:06:38.877Z,34.50
2023-11-21T12:09:08.575Z,36.75
2023-11-21T12:11:36.541Z,35.95
2023-11-21T12:14:06.221Z,37.83
2023-11-21T12:16:34.015Z,33.88
2023-11-21T12:19:00.631Z,34.22
2023-11-21T12:21:27.878Z,33.70
2023-11-21T12:23:54.337Z,35.78
2023-11-21T12:26:24.904Z,38.38
2023-11-21T12:28:57.787Z,39.17
2023-11-21T12:31:25.216Z,39.88
2023-11-21T12:33:53.032Z,41.47
2023-11-21T12:36:20.207Z,39.85
2023-11-21T12:38:46.650Z,41.25
2023-11-21T12:41:13.153Z,38.88
2023-11-21T12:43:40.718Z,38.90
2023-11-21T12:46:12.014Z,38.75
2023-11-21T12:51:07.773Z,39.33
2023-11-21T12:53:39.422Z,36.83
2023-11-21T12:56:10.925Z,38.25
2023-11-21T12:58:40.418Z,35.75
2023-11-21T13:01:12.618Z,36.63
2023-11-21T13:03:41.489Z,40.83
2023-11-21T13:06:11.180Z,39.28
2023-11-21T13:08:40.142Z,40.38
2023-11-21T13:11:07.431Z,41.13
2023-11-21T13:13:34.421Z,39.55
2023-11-21T13:16:05.293Z,43.05
2023-11-21T13:18:35.105Z,41.53
2023-11-21T13:21:13.509Z,43.28
2023-11-21T13:23:42.441Z,45.25
2023-11-21T13:26:10.241Z,49.28
2023-11-21T13:28:38.947Z,43.42
2023-11-21T13:31:35.902Z,42.42
2023-11-21T13:34:06.612Z,45.75
2023-11-21T13:36:37.178Z,57.00
2023-11-21T13:39:09.873Z,48.90
2023-11-21T13:41:39.172Z,46.60
2023-11-21T13:44:17.366Z,43.17
2023-11-21T13:46:45.158Z,44.88
2023-11-21T13:49:11.829Z,49.80
2023-11-21T13:51:47.040Z,45.60
2023-11-21T13:54:13.722Z,46.42
2023-11-21T13:56:42.246Z,49.95
2023-11-21T13:59:21.917Z,49.00
2023-11-21T14:01:57.243Z,56.08
2023-11-21T14:04:34.057Z,58.22
2023-11-21T14:07:11.726Z,53.50
2023-11-21T14:09:45.140Z,50.67
2023-11-21T14:12:14.150Z,46.63
2023-11-21T14:14:41.055Z,48.10
2023-11-21T14:17:08.407Z,50.38
2023-11-21T14:19:37.767Z,44.03
2023-11-21T14:22:04.369Z,50.75
2023-11-21T14:24:31.963Z,52.38
2023-11-21T14:26:58.552Z,50.67
2023-11-21T14:29:25.700Z,50.72
2023-11-21T14:31:54.664Z,52.17
2023-11-21T14:34:23.367Z,53.95
2023-11-21T14:36:50.865Z,50.70
2023-11-21T14:39:25.175Z,50.30
2023-11-21T14:41:54.189Z,51.00
2023-11-21T14:44:25.242Z,47.25
2023-11-21T14:46:52.453Z,48.35
2023-11-21T14:49:23.184Z,45.88
2023-11-21T14:52:04.786Z,47.83
2023-11-21T14:54:42.214Z,49.40
2023-11-21T14:57:17.504Z,49.72
2023-11-21T14:59:52.467Z,48.83
2023-11-21T15:02:23.705Z,48.65
2023-11-21T15:04:53.912Z,48.38
2023-11-21T15:07:20.428Z,54.60
2023-11-21T15:09:46.889Z,51.60
2023-11-21T15:12:16.971Z,57.80
2023-11-21T15:14:50.960Z,57.20
2023-11-21T15:17:32.137Z,54.95
2023-11-21T15:19:59.191Z,52.63
2023-11-21T15:22:26.844Z,56.83
2023-11-21T15:24:54.937Z,55.70
2023-11-21T15:27:22.255Z,58.33
2023-11-21T15:29:50.948Z,53.13
2023-11-21T15:32:17.509Z,53.78
2023-11-21T15:34:44.000Z,56.85
2023-11-21T15:37:12.667Z,51.45
2023-11-21T15:39:40.585Z,55.45
2023-11-21T15:42:08.569Z,57.97
2023-11-21T15:44:35.293Z,57.00
2023-11-21T15:47:05.002Z,54.42
2023-11-21T15:49:37.029Z,59.38
2023-11-21T15:52:07.416Z,58.92
2023-11-21T15:54:35.824Z,58.57
2023-11-21T15:57:04.029Z,56.65
2023-11-21T15:59:34.442Z,58.30
2023-11-21T16:02:02.203Z,56.50
2023-11-21T16:04:29.505Z,66.70
2023-11-21T16:06:56.360Z,54.88
2023-11-21T16:09:24.642Z,56.33
2023-11-21T16:12:01.775Z,58.92
2023-11-21T16:14:36.585Z,54.17
2023-11-21T16:17:04.211Z,55.15
2023-11-21T16:19:31.220Z,60.20
2023-11-21T16:21:57.882Z,59.08
2023-11-21T16:24:25.215Z,61.50
2023-11-21T16:26:51.688Z,64.22
2023-11-21T16:29:18.268Z,63.28
2023-11-21T16:31:45.458Z,66.55
2023-11-21T16:34:20.310Z,67.95
2023-11-21T16:36:47.557Z,81.47
2023-11-21T16:39:14.942Z,74.20
2023-11-21T16:41:42.628Z,67.55
2023-11-21T16:44:36.258Z,72.18
2023-11-21T16:47:06.642Z,69.20
2023-11-21T16:49:34.429Z,78.70
2023-11-21T16:52:04.069Z,73.60
2023-11-21T16:54:30.829Z,73.05
2023-11-21T16:56:57.344Z,72.22
2023-11-21T16:59:24.458Z,73.10
2023-11-21T17:01:51.124Z,78.20
2023-11-21T17:04:20.000Z,87.93
2023-11-21T17:06:48.115Z,101.55
2023-11-21T17:09:19.105Z,92.03
2023-11-21T17:11:49.740Z,81.82
2023-11-21T17:14:17.128Z,75.25
2023-11-21T17:16:45.532Z,66.07
2023-11-21T17:19:12.093Z,62.97
2023-11-21T17:21:38.631Z,57.90
2023-11-21T17:24:05.667Z,90.00
2023-11-21T17:26:32.404Z,96.75
2023-11-21T17:28:59.553Z,96.22
2023-11-21T17:31:26.114Z,75.90
2023-11-21T17:33:54.918Z,73.28
2023-11-21T17:36:22.208Z,65.63
2023-11-21T17:38:48.954Z,67.15
2023-11-21T17:41:20.629Z,54.40
2023-11-21T17:43:47.195Z,53.40
2023-11-21T17:46:20.166Z,56.83
2023-11-21T17:48:46.884Z,57.42
2023-11-21T17:51:13.325Z,78.47
2023-11-21T17:53:41.565Z,148.32
2023-11-21T17:56:08.004Z,241.05
2023-11-21T17:58:34.441Z,126.20
2023-11-21T18:01:00.989Z,66.93
2023-11-21T18:03:27.621Z,57.60
2023-11-21T18:05:55.063Z,63.47
2023-11-21T18:08:22.241Z,58.28
2023-11-21T18:10:48.842Z,58.40
2023-11-21T18:13:15.338Z,58.58
2023-11-21T18:15:41.833Z,57.38
2023-11-21T18:18:08.555Z,57.95
2023-11-21T18:20:35.395Z,68.10
2023-11-21T18:23:01.902Z,73.75
2023-11-21T18:25:30.002Z,63.40
2023-11-21T18:27:56.660Z,60.53
2023-11-21T18:30:23.089Z,61.92
2023-11-21T18:32:49.675Z,65.75
2023-11-21T18:35:16.472Z,80.30
2023-11-21T18:37:44.035Z,65.75
2023-11-21T18:40:10.787Z,51.88
2023-11-21T18:42:37.300Z,52.35
2023-11-21T18:45:04.080Z,50.45
2023-11-21T18:47:30.883Z,60.15
2023-11-21T18:49:58.776Z,54.53
2023-11-21T18:52:28.453Z,56.80
2023-11-21T18:54:54.981Z,62.83
2023-11-21T18:57:21.576Z,63.97
2023-11-21T18:59:48.040Z,59.17
2023-11-21T19:02:15.169Z,73.55
2023-11-21T19:04:42.118Z,75.28
2023-11-21T19:07:08.600Z,59.30
2023-11-21T19:09:36.448Z,63.33
2023-11-21T19:12:04.153Z,103.88
2023-11-21T19:14:30.697Z,236.77
2023-11-21T19:16:57.547Z,180.10
2023-11-21T19:19:24.218Z,98.85
2023-11-21T19:21:50.726Z,77.20
2023-11-21T19:24:19.892Z,73.82
2023-11-21T19:26:46.607Z,66.03
2023-11-21T19:29:13.135Z,57.38
2023-11-21T19:31:39.702Z,55.63
2023-11-21T19:34:06.248Z,56.97
2023-11-21T19:36:32.834Z,54.55
2023-11-21T19:38:59.260Z,53.10
2023-11-21T19:41:26.152Z,51.28
2023-11-21T19:43:52.825Z,53.33
2023-11-21T19:46:19.694Z,89.97
2023-11-21T19:48:47.121Z,96.60
2023-11-21T19:51:13.748Z,77.05
2023-11-21T19:53:40.486Z,64.88
2023-11-21T19:56:10.505Z,64.82
2023-11-21T19:58:37.917Z,61.60
2023-11-21T20:01:04.445Z,62.88
2023-11-21T20:03:31.524Z,50.28
2023-11-21T20:05:57.976Z,50.58
2023-11-21T20:08:24.527Z,47.30
2023-11-21T20:10:51.409Z,58.10
2023-11-21T20:13:18.293Z,80.90
2023-11-21T20:15:45.301Z,82.78
2023-11-21T20:18:12.879Z,65.57
2023-11-21T20:20:39.586Z,61.75
2023-11-21T20:23:08.119Z,62.58
2023-11-21T20:25:37.897Z,62.10
2023-11-21T20:28:05.333Z,63.95
2023-11-21T20:30:33.239Z,65.35
2023-11-21T20:32:59.893Z,64.22
2023-11-21T20:35:26.442Z,61.28
2023-11-21T20:37:52.997Z,57.45
2023-11-21T20:40:20.022Z,58.38
2023-11-21T20:42:47.925Z,58.92
2023-11-21T20:45:14.760Z,59.17
2023-11-21T20:47:43.567Z,55.70
2023-11-21T20:50:10.941Z,57.40
2023-11-21T20:52:37.640Z,58.22
2023-11-21T20:55:04.401Z,58.05
2023-11-21T20:57:30.881Z,60.13
2023-11-21T20:59:57.321Z,57.33
2023-11-21T21:02:24.014Z,64.45
2023-11-21T21:04:50.545Z,69.13
2023-11-21T21:07:17.046Z,73.15
2023-11-21T21:09:43.573Z,77.20
2023-11-21T21:12:12.444Z,62.75
2023-11-21T21:14:39.794Z,56.28
2023-11-21T21:17:06.946Z,49.03
2023-11-21T21:19:34.246Z,48.25
2023-11-21T21:22:01.008Z,47.22
2023-11-21T21:24:28.434Z,45.15
2023-11-21T21:26:54.928Z,45.90
2023-11-21T21:29:26.426Z,45.67
2023-11-21T21:31:53.912Z,57.88
2023-11-21T21:34:22.180Z,62.63
2023-11-21T21:36:49.391Z,67.47
2023-11-21T21:39:15.846Z,60.72
2023-11-21T21:41:42.361Z,59.85
2023-11-21T21:44:09.165Z,50.47
2023-11-21T21:46:36.082Z,54.28
2023-11-21T21:49:04.593Z,56.15
2023-11-21T21:51:32.092Z,56.17
2023-11-21T21:53:58.543Z,46.50
2023-11-21T21:56:25.686Z,46.72
2023-11-21T21:58:53.164Z,52.55
2023-11-21T22:01:19.902Z,48.38
2023-11-21T22:03:46.574Z,48.50
2023-11-21T22:06:13.676Z,53.88
2023-11-21T22:08:40.487Z,48.17
2023-11-21T22:11:07.835Z,58.85
2023-11-21T22:13:35.149Z,61.65
2023-11-21T22:16:03.062Z,55.15
2023-11-21T22:18:29.611Z,50.03
2023-11-21T22:20:56.509Z,45.83
2023-11-21T22:23:23.070Z,48.63
2023-11-21T22:25:49.736Z,44.40
2023-11-21T22:28:16.286Z,57.85
2023-11-21T22:30:42.807Z,68.88
2023-11-21T22:33:09.310Z,70.78
2023-11-21T22:35:35.867Z,62.17
2023-11-21T22:38:03.294Z,55.22
2023-11-21T22:40:29.779Z,56.88
2023-11-21T22:42:56.310Z,53.13
2023-11-21T22:45:23.865Z,52.05
2023-11-21T22:47:50.411Z,59.80
2023-11-21T22:50:17.022Z,53.45
2023-11-21T22:52:43.475Z,51.40
2023-11-21T22:55:10.042Z,56.67
2023-11-21T22:57:36.519Z,54.88
2023-11-21T23:00:08.180Z,57.83
2023-11-21T23:02:34.889Z,51.53
2023-11-21T23:05:03.337Z,41.60
2023-11-21T23:07:29.811Z,37.42
2023-11-21T23:09:56.237Z,37.60
2023-11-21T23:12:22.700Z,39.17
2023-11-21T23:14:49.239Z,38.63
2023-11-21T23:17:15.774Z,37.63
2023-11-21T23:19:48.435Z,37.55
2023-11-21T23:22:17.765Z,34.20
2023-11-21T23:24:44.193Z,31.77
2023-11-21T23:27:10.686Z,31.50
2023-11-21T23:29:39.820Z,30.45
2023-11-21T23:32:07.085Z,30.17
2023-11-21T23:34:33.559Z,33.40
2023-11-21T23:37:00.044Z,31.70
2023-11-21T23:39:26.492Z,30.48
2023-11-21T23:41:52.943Z,28.50
2023-11-21T23:44:20.054Z,30.98
2023-11-21T23:46:46.646Z,29.05
2023-11-21T23:49:13.173Z,30.02
2023-11-21T23:51:39.998Z,29.65
2023-11-21T23:54:06.867Z,29.35
2023-11-21T23:56:33.339Z,45.13
2023-11-21T23:58:59.852Z,42.03
